sensor_id;sensor_type;location;lat;lon;timestamp;pressure;altitude;pressure_sealevel;temperature;humidity
76260;BME280;65076;52.362;6.588;2023-08-31T00:04:52;100692.88;;;12.70;81.70
76260;BME280;65076;52.362;6.588;2023-08-31T00:07:25;100735.19;;;13.34;80.72
76260;BME280;65076;52.362;6.588;2023-08-31T00:27:21;100726.16;;;13.33;79.91
76260;BME280;65076;52.362;6.588;2023-08-31T00:34:47;100719.03;;;13.17;80.00
76260;BME280;65076;52.362;6.588;2023-08-31T00:42:16;100620.69;;;12.82;80.09
76260;BME280;65076;52.362;6.588;2023-08-31T00:44:51;100698.78;;;12.92;79.53
76260;BME280;65076;52.362;6.588;2023-08-31T00:49:52;100686.03;;;12.93;80.53
76260;BME280;65076;52.362;6.588;2023-08-31T00:52:25;100722.72;;;13.15;79.63
76260;BME280;65076;52.362;6.588;2023-08-31T01:02:34;100716.34;;;13.31;77.37
76260;BME280;65076;52.362;6.588;2023-08-31T01:05:31;100724.56;;;13.15;78.04
76260;BME280;65076;52.362;6.588;2023-08-31T01:10:47;100709.22;;;13.14;78.06
76260;BME280;65076;52.362;6.588;2023-08-31T01:16:03;100728.91;;;13.47;77.35
76260;BME280;65076;52.362;6.588;2023-08-31T01:21:19;100695.28;;;13.20;78.76
76260;BME280;65076;52.362;6.588;2023-08-31T01:28:56;100714.59;;;13.30;78.84
76260;BME280;65076;52.362;6.588;2023-08-31T01:33:56;100720.31;;;13.25;78.30
76260;BME280;65076;52.362;6.588;2023-08-31T01:36:35;100701.88;;;13.00;79.46
76260;BME280;65076;52.362;6.588;2023-08-31T01:39:24;100702.47;;;12.91;79.58
76260;BME280;65076;52.362;6.588;2023-08-31T01:47:06;100721.81;;;12.85;81.47
76260;BME280;65076;52.362;6.588;2023-08-31T01:52:08;100705.53;;;12.85;81.84
76260;BME280;65076;52.362;6.588;2023-08-31T01:54:43;100662.41;;;12.65;82.50
76260;BME280;65076;52.362;6.588;2023-08-31T02:02:14;100718.59;;;12.79;83.73
76260;BME280;65076;52.362;6.588;2023-08-31T02:07:13;100727.97;;;12.73;84.76
76260;BME280;65076;52.362;6.588;2023-08-31T02:09:47;100686.88;;;12.34;84.90
76260;BME280;65076;52.362;6.588;2023-08-31T02:17:20;100686.38;;;12.72;85.47
76260;BME280;65076;52.362;6.588;2023-08-31T02:24:56;100657.25;;;12.60;84.91
76260;BME280;65076;52.362;6.588;2023-08-31T02:27:30;100710.16;;;12.83;84.68
76260;BME280;65076;52.362;6.588;2023-08-31T02:35:03;100708.25;;;12.85;85.04
76260;BME280;65076;52.362;6.588;2023-08-31T02:40:12;100694.06;;;12.80;84.81
76260;BME280;65076;52.362;6.588;2023-08-31T02:47:45;100716.03;;;12.91;86.11
76260;BME280;65076;52.362;6.588;2023-08-31T02:52:47;100656.84;;;12.37;86.41
76260;BME280;65076;52.362;6.588;2023-08-31T03:02:49;100708.38;;;12.52;88.69
76260;BME280;65076;52.362;6.588;2023-08-31T03:07:51;100651.94;;;12.43;87.65
76260;BME280;65076;52.362;6.588;2023-08-31T03:15:20;100665.19;;;12.34;87.82
76260;BME280;65076;52.362;6.588;2023-08-31T03:17:56;100644.25;;;12.36;86.32
76260;BME280;65076;52.362;6.588;2023-08-31T03:25:27;100691.91;;;12.71;86.25
76260;BME280;65076;52.362;6.588;2023-08-31T03:30:28;100687.97;;;12.77;84.60
76260;BME280;65076;52.362;6.588;2023-08-31T03:33:04;100660.66;;;12.64;85.14
76260;BME280;65076;52.362;6.588;2023-08-31T03:40:37;100685.84;;;12.82;84.42
76260;BME280;65076;52.362;6.588;2023-08-31T03:45:38;100680.19;;;12.70;85.05
76260;BME280;65076;52.362;6.588;2023-08-31T03:48:12;100678.50;;;12.68;85.13
76260;BME280;65076;52.362;6.588;2023-08-31T03:55:43;100696.31;;;12.58;86.07
76260;BME280;65076;52.362;6.588;2023-08-31T04:00:49;100704.72;;;12.53;86.46
76260;BME280;65076;52.362;6.588;2023-08-31T04:10:48;100703.06;;;12.66;86.41
76260;BME280;65076;52.362;6.588;2023-08-31T04:15:49;100676.28;;;12.45;86.74
76260;BME280;65076;52.362;6.588;2023-08-31T04:18:20;100657.03;;;12.34;86.33
76260;BME280;65076;52.362;6.588;2023-08-31T04:20:59;100651.88;;;12.29;86.34
76260;BME280;65076;52.362;6.588;2023-08-31T04:28:28;100702.78;;;12.71;85.98
76260;BME280;65076;52.362;6.588;2023-08-31T04:31:01;100715.78;;;12.80;86.27
76260;BME280;65076;52.362;6.588;2023-08-31T04:41:05;100669.88;;;12.46;85.67
76260;BME280;65076;52.362;6.588;2023-08-31T04:48:38;100726.75;;;12.79;86.65
76260;BME280;65076;52.362;6.588;2023-08-31T04:51:29;100655.28;;;12.32;86.29
76260;BME280;65076;52.362;6.588;2023-08-31T04:54:05;100728.94;;;12.72;86.56
76260;BME280;65076;52.362;6.588;2023-08-31T05:01:41;100716.50;;;12.68;86.47
76260;BME280;65076;52.362;6.588;2023-08-31T05:04:12;100712.22;;;12.64;86.66
76260;BME280;65076;52.362;6.588;2023-08-31T05:09:11;100669.44;;;12.53;84.80
76260;BME280;65076;52.362;6.588;2023-08-31T05:11:44;100747.66;;;12.92;85.51
76260;BME280;65076;52.362;6.588;2023-08-31T05:16:45;100747.41;;;13.11;85.10
76260;BME280;65076;52.362;6.588;2023-08-31T05:21:47;100679.22;;;12.71;84.65
76260;BME280;65076;52.362;6.588;2023-08-31T05:24:20;100756.41;;;13.13;83.80
76260;BME280;65076;52.362;6.588;2023-08-31T05:31:56;100772.91;;;13.82;82.06
76260;BME280;65076;52.362;6.588;2023-08-31T05:34:28;100756.41;;;14.14;80.30
76260;BME280;65076;52.362;6.588;2023-08-31T05:37:03;100777.47;;;14.24;79.93
76260;BME280;65076;52.362;6.588;2023-08-31T05:47:06;100783.53;;;14.84;76.10
76260;BME280;65076;52.362;6.588;2023-08-31T05:52:11;100777.75;;;15.28;74.76
76260;BME280;65076;52.362;6.588;2023-08-31T05:57:18;100795.78;;;15.83;73.35
76260;BME280;65076;52.362;6.588;2023-08-31T06:02:25;100805.50;;;15.75;73.43
76260;BME280;65076;52.362;6.588;2023-08-31T06:07:24;100802.66;;;15.89;73.24
76260;BME280;65076;52.362;6.588;2023-08-31T06:12:24;100791.75;;;16.01;72.31
76260;BME280;65076;52.362;6.588;2023-08-31T06:17:26;100790.41;;;16.20;72.10
76260;BME280;65076;52.362;6.588;2023-08-31T06:22:27;100776.81;;;16.56;69.87
76260;BME280;65076;52.362;6.588;2023-08-31T06:24:59;100805.84;;;16.70;70.54
76260;BME280;65076;52.362;6.588;2023-08-31T06:32:36;100752.56;;;16.64;68.85
76260;BME280;65076;52.362;6.588;2023-08-31T06:42:33;100801.16;;;17.43;67.17
76260;BME280;65076;52.362;6.588;2023-08-31T06:52:33;100779.97;;;18.26;64.97
76260;BME280;65076;52.362;6.588;2023-08-31T06:57:34;100755.81;;;18.20;63.25
76260;BME280;65076;52.362;6.588;2023-08-31T07:00:08;100836.81;;;19.12;62.36
76260;BME280;65076;52.362;6.588;2023-08-31T07:10:15;100840.06;;;19.05;61.78
76260;BME280;65076;52.362;6.588;2023-08-31T07:15:20;100857.44;;;19.38;60.96
76260;BME280;65076;52.362;6.588;2023-08-31T07:22:54;100851.09;;;20.52;58.08
76260;BME280;65076;52.362;6.588;2023-08-31T07:27:55;100837.13;;;20.35;57.42
76260;BME280;65076;52.362;6.588;2023-08-31T07:32:55;100801.72;;;20.20;57.85
76260;BME280;65076;52.362;6.588;2023-08-31T07:35:31;100862.16;;;20.00;57.97
76260;BME280;65076;52.362;6.588;2023-08-31T07:40:28;100856.03;;;21.19;54.53
76260;BME280;65076;52.362;6.588;2023-08-31T07:45:31;100819.25;;;20.90;55.60
76260;BME280;65076;52.362;6.588;2023-08-31T07:50:35;100870.25;;;21.53;54.39
76260;BME280;65076;52.362;6.588;2023-08-31T07:53:11;100824.91;;;20.27;55.68
76260;BME280;65076;52.362;6.588;2023-08-31T08:00:45;100812.84;;;19.88;57.07
76260;BME280;65076;52.362;6.588;2023-08-31T08:05:48;100844.88;;;20.90;55.13
76260;BME280;65076;52.362;6.588;2023-08-31T08:10:53;100878.81;;;21.50;55.61
76260;BME280;65076;52.362;6.588;2023-08-31T08:15:56;100852.84;;;21.24;53.86
76260;BME280;65076;52.362;6.588;2023-08-31T08:20:57;100792.94;;;20.97;53.42
76260;BME280;65076;52.362;6.588;2023-08-31T08:23:29;100899.66;;;21.33;56.13
76260;BME280;65076;52.362;6.588;2023-08-31T08:28:30;100896.50;;;22.34;53.52
76260;BME280;65076;52.362;6.588;2023-08-31T08:33:35;100893.28;;;22.95;51.42
76260;BME280;65076;52.362;6.588;2023-08-31T08:38:35;100880.09;;;22.32;50.72
76260;BME280;65076;52.362;6.588;2023-08-31T08:41:10;100865.50;;;21.65;51.16
76260;BME280;65076;52.362;6.588;2023-08-31T08:48:47;100901.88;;;21.68;54.13
76260;BME280;65076;52.362;6.588;2023-08-31T08:56:20;100875.91;;;22.28;51.40
76260;BME280;65076;52.362;6.588;2023-08-31T08:58:58;100910.56;;;22.31;52.94
76260;BME280;65076;52.362;6.588;2023-08-31T09:06:30;100910.94;;;23.11;50.21
76260;BME280;65076;52.362;6.588;2023-08-31T09:31:44;100908.03;;;21.32;53.98
76260;BME280;65076;52.362;6.588;2023-08-31T09:36:45;100892.75;;;20.78;55.66
76260;BME280;65076;52.362;6.588;2023-08-31T09:49:21;100916.53;;;20.17;57.13
76260;BME280;65076;52.362;6.588;2023-08-31T09:59:18;100820.94;;;20.41;52.88
76260;BME280;65076;52.362;6.588;2023-08-31T10:01:52;100916.28;;;21.22;53.14
76260;BME280;65076;52.362;6.588;2023-08-31T10:06:55;100905.94;;;21.93;51.28
76260;BME280;65076;52.362;6.588;2023-08-31T10:32:00;100931.84;;;20.51;55.50
76260;BME280;65076;52.362;6.588;2023-08-31T10:39:37;100938.44;;;22.28;50.06
76260;BME280;65076;52.362;6.588;2023-08-31T10:42:08;100940.44;;;22.55;48.63
76260;BME280;65076;52.362;6.588;2023-08-31T10:47:12;100948.47;;;21.31;50.72
76260;BME280;65076;52.362;6.588;2023-08-31T10:54:43;100949.13;;;21.64;50.94
76260;BME280;65076;52.362;6.588;2023-08-31T11:05:00;100927.25;;;23.32;46.77
76260;BME280;65076;52.362;6.588;2023-08-31T11:10:15;100952.66;;;21.94;49.93
76260;BME280;65076;52.362;6.588;2023-08-31T11:15:18;100959.44;;;21.22;52.65
76260;BME280;65076;52.362;6.588;2023-08-31T11:20:24;100947.13;;;21.26;50.22
76260;BME280;65076;52.362;6.588;2023-08-31T11:25:30;100892.31;;;21.82;46.97
76260;BME280;65076;52.362;6.588;2023-08-31T11:30:32;100950.63;;;23.38;46.61
76260;BME280;65076;52.362;6.588;2023-08-31T11:35:37;100936.75;;;23.20;45.82
76260;BME280;65076;52.362;6.588;2023-08-31T11:40:41;100951.88;;;23.53;44.92
76260;BME280;65076;52.362;6.588;2023-08-31T11:45:40;100925.13;;;24.42;44.31
76260;BME280;65076;52.362;6.588;2023-08-31T11:48:14;100931.59;;;24.51;42.13
76260;BME280;65076;52.362;6.588;2023-08-31T11:55:52;100949.88;;;24.43;41.78
76260;BME280;65076;52.362;6.588;2023-08-31T12:03:20;100941.16;;;23.13;45.45
76260;BME280;65076;52.362;6.588;2023-08-31T12:05:52;100937.22;;;22.78;47.12
76260;BME280;65076;52.362;6.588;2023-08-31T12:13:30;100930.13;;;22.47;46.35
76260;BME280;65076;52.362;6.588;2023-08-31T12:18:30;100967.75;;;22.10;50.08
76260;BME280;65076;52.362;6.588;2023-08-31T12:21:03;100974.88;;;21.43;53.56
76260;BME280;65076;52.362;6.588;2023-08-31T12:31:05;101034.63;;;18.04;67.60
76260;BME280;65076;52.362;6.588;2023-08-31T12:38:36;100973.75;;;17.27;71.19
76260;BME280;65076;52.362;6.588;2023-08-31T12:43:37;101001.91;;;17.66;72.67
76260;BME280;65076;52.362;6.588;2023-08-31T12:46:15;101016.84;;;18.90;74.25
76260;BME280;65076;52.362;6.588;2023-08-31T12:48:55;101008.25;;;20.05;73.58
76260;BME280;65076;52.362;6.588;2023-08-31T12:53:56;100988.75;;;21.82;63.30
76260;BME280;65076;52.362;6.588;2023-08-31T13:06:47;100995.88;;;23.82;54.32
76260;BME280;65076;52.362;6.588;2023-08-31T13:09:23;100933.84;;;23.94;54.22
76260;BME280;65076;52.362;6.588;2023-08-31T13:16:53;100978.53;;;21.53;60.71
76260;BME280;65076;52.362;6.588;2023-08-31T13:19:22;101025.09;;;22.45;59.65
76260;BME280;65076;52.362;6.588;2023-08-31T13:21:51;100994.03;;;21.54;60.86
76260;BME280;65076;52.362;6.588;2023-08-31T13:26:56;100984.91;;;21.14;63.16
76260;BME280;65076;52.362;6.588;2023-08-31T13:29:25;100992.13;;;21.95;63.19
76260;BME280;65076;52.362;6.588;2023-08-31T13:34:23;101006.94;;;22.80;58.89
76260;BME280;65076;52.362;6.588;2023-08-31T13:36:52;100986.88;;;22.69;56.92
76260;BME280;65076;52.362;6.588;2023-08-31T13:39:21;100978.72;;;21.81;58.44
76260;BME280;65076;52.362;6.588;2023-08-31T13:41:51;100970.16;;;21.84;59.72
76260;BME280;65076;52.362;6.588;2023-08-31T13:46:52;100996.16;;;21.11;60.20
76260;BME280;65076;52.362;6.588;2023-08-31T13:59:16;101017.16;;;20.61;65.84
76260;BME280;65076;52.362;6.588;2023-08-31T14:01:48;101015.50;;;21.00;64.88
76260;BME280;65076;52.362;6.588;2023-08-31T14:19:16;100966.81;;;20.91;62.53
76260;BME280;65076;52.362;6.588;2023-08-31T14:36:40;100998.34;;;20.87;61.42
76260;BME280;65076;52.362;6.588;2023-08-31T14:41:40;101017.69;;;20.76;60.84
76260;BME280;65076;52.362;6.588;2023-08-31T14:44:13;101012.94;;;21.08;60.14
76260;BME280;65076;52.362;6.588;2023-08-31T15:06:39;101028.53;;;21.59;58.20
76260;BME280;65076;52.362;6.588;2023-08-31T15:09:11;101026.09;;;21.55;56.27
76260;BME280;65076;52.362;6.588;2023-08-31T15:11:48;101030.66;;;21.85;56.62
76260;BME280;65076;52.362;6.588;2023-08-31T15:41:31;101025.06;;;21.96;52.65
76260;BME280;65076;52.362;6.588;2023-08-31T15:44:06;101027.06;;;21.94;53.28
76260;BME280;65076;52.362;6.588;2023-08-31T15:46:39;101046.56;;;22.31;51.45
76260;BME280;65076;52.362;6.588;2023-08-31T16:06:38;101047.47;;;20.91;51.13
76260;BME280;65076;52.362;6.588;2023-08-31T16:11:39;101044.44;;;21.15;51.59
76260;BME280;65076;52.362;6.588;2023-08-31T16:14:10;101028.50;;;20.88;50.17
76260;BME280;65076;52.362;6.588;2023-08-31T16:36:36;101048.34;;;20.71;49.74
76260;BME280;65076;52.362;6.588;2023-08-31T16:59:00;101072.56;;;20.56;50.00
76260;BME280;65076;52.362;6.588;2023-08-31T17:04:01;101056.25;;;20.85;49.54
76260;BME280;65076;52.362;6.588;2023-08-31T17:06:34;101086.44;;;20.96;49.63
76260;BME280;65076;52.362;6.588;2023-08-31T17:09:06;101066.78;;;20.59;49.77
76260;BME280;65076;52.362;6.588;2023-08-31T17:16:42;101056.56;;;20.50;48.74
76260;BME280;65076;52.362;6.588;2023-08-31T17:24:15;101060.72;;;20.45;49.40
76260;BME280;65076;52.362;6.588;2023-08-31T17:29:17;101059.53;;;20.58;48.94
76260;BME280;65076;52.362;6.588;2023-08-31T17:36:58;101016.91;;;19.89;50.24
76260;BME280;65076;52.362;6.588;2023-08-31T17:44:27;101082.72;;;19.91;50.77
76260;BME280;65076;52.362;6.588;2023-08-31T17:47:00;101093.31;;;19.84;51.11
76260;BME280;65076;52.362;6.588;2023-08-31T17:54:36;101097.31;;;20.02;51.09
76260;BME280;65076;52.362;6.588;2023-08-31T18:02:07;101042.91;;;19.85;52.00
76260;BME280;65076;52.362;6.588;2023-08-31T18:07:08;101106.16;;;20.06;52.31
76260;BME280;65076;52.362;6.588;2023-08-31T18:09:44;101063.28;;;19.60;53.47
76260;BME280;65076;52.362;6.588;2023-08-31T18:17:15;101125.72;;;18.66;54.92
76260;BME280;65076;52.362;6.588;2023-08-31T18:19:48;101131.56;;;19.08;55.28
76260;BME280;65076;52.362;6.588;2023-08-31T18:24:55;101140.81;;;19.18;54.03
76260;BME280;65076;52.362;6.588;2023-08-31T18:29:58;101089.50;;;18.02;56.20
76260;BME280;65076;52.362;6.588;2023-08-31T18:35:02;101111.47;;;18.96;55.37
76260;BME280;65076;52.362;6.588;2023-08-31T18:40:07;101138.69;;;19.21;54.58
76260;BME280;65076;52.362;6.588;2023-08-31T18:45:09;101125.47;;;18.69;56.80
76260;BME280;65076;52.362;6.588;2023-08-31T18:47:45;101146.19;;;18.84;55.93
76260;BME280;65076;52.362;6.588;2023-08-31T18:57:52;101128.53;;;18.88;56.83
76260;BME280;65076;52.362;6.588;2023-08-31T19:02:56;101099.38;;;17.92;58.54
76260;BME280;65076;52.362;6.588;2023-08-31T19:05:29;101119.84;;;17.99;59.07
76260;BME280;65076;52.362;6.588;2023-08-31T19:15:39;101159.19;;;17.98;61.20
76260;BME280;65076;52.362;6.588;2023-08-31T19:23:08;101147.16;;;17.75;61.82
76260;BME280;65076;52.362;6.588;2023-08-31T19:25:41;101125.31;;;17.38;62.89
76260;BME280;65076;52.362;6.588;2023-08-31T19:35:45;101145.09;;;17.28;64.15
76260;BME280;65076;52.362;6.588;2023-08-31T19:40:45;101179.34;;;17.47;63.55
76260;BME280;65076;52.362;6.588;2023-08-31T19:45:46;101152.44;;;17.41;61.95
76260;BME280;65076;52.362;6.588;2023-08-31T19:48:19;101151.88;;;17.48;61.69
76260;BME280;65076;52.362;6.588;2023-08-31T20:00:54;101175.41;;;17.25;63.90
76260;BME280;65076;52.362;6.588;2023-08-31T20:05:54;101105.44;;;16.71;64.67
76260;BME280;65076;52.362;6.588;2023-08-31T20:08:27;101122.09;;;16.93;64.22
76260;BME280;65076;52.362;6.588;2023-08-31T20:16:04;101125.78;;;16.40;65.30
76260;BME280;65076;52.362;6.588;2023-08-31T20:21:05;101149.16;;;16.71;65.58
76260;BME280;65076;52.362;6.588;2023-08-31T20:23:37;101153.03;;;16.81;65.08
76260;BME280;65076;52.362;6.588;2023-08-31T20:31:13;101146.34;;;16.45;65.30
76260;BME280;65076;52.362;6.588;2023-08-31T20:38:46;101177.19;;;16.87;64.52
76260;BME280;65076;52.362;6.588;2023-08-31T20:43:46;101182.81;;;16.98;64.97
76260;BME280;65076;52.362;6.588;2023-08-31T20:46:20;101195.31;;;16.75;64.49
76260;BME280;65076;52.362;6.588;2023-08-31T20:53:51;101135.09;;;16.77;64.63
76260;BME280;65076;52.362;6.588;2023-08-31T20:58:50;101183.28;;;17.30;63.74
76260;BME280;65076;52.362;6.588;2023-08-31T21:03:57;101177.34;;;16.98;64.18
76260;BME280;65076;52.362;6.588;2023-08-31T21:09:02;101203.59;;;17.13;64.78
76260;BME280;65076;52.362;6.588;2023-08-31T21:14:05;101178.00;;;16.62;66.25
76260;BME280;65076;52.362;6.588;2023-08-31T21:16:37;101190.69;;;16.63;65.67
76260;BME280;65076;52.362;6.588;2023-08-31T21:29:09;101184.69;;;16.71;66.54
76260;BME280;65076;52.362;6.588;2023-08-31T21:36:38;101166.81;;;16.79;66.36
76260;BME280;65076;52.362;6.588;2023-08-31T21:39:10;101170.63;;;16.77;65.25
76260;BME280;65076;52.362;6.588;2023-08-31T21:46:44;101192.47;;;16.64;66.53
76260;BME280;65076;52.362;6.588;2023-08-31T21:51:44;101130.75;;;16.33;65.55
76260;BME280;65076;52.362;6.588;2023-08-31T21:54:15;101190.38;;;16.68;66.55
76260;BME280;65076;52.362;6.588;2023-08-31T22:01:47;101167.28;;;16.18;68.78
76260;BME280;65076;52.362;6.588;2023-08-31T22:06:47;101182.00;;;16.30;67.41
76260;BME280;65076;52.362;6.588;2023-08-31T22:09:19;101179.88;;;16.62;67.08
76260;BME280;65076;52.362;6.588;2023-08-31T22:14:20;101202.69;;;16.61;67.60
76260;BME280;65076;52.362;6.588;2023-08-31T22:21:54;101160.78;;;16.47;67.61
76260;BME280;65076;52.362;6.588;2023-08-31T22:29:26;101212.16;;;16.69;67.03
76260;BME280;65076;52.362;6.588;2023-08-31T22:34:26;101219.16;;;16.18;70.58
76260;BME280;65076;52.362;6.588;2023-08-31T22:37:02;101215.66;;;16.57;68.30
76260;BME280;65076;52.362;6.588;2023-08-31T22:42:06;101213.16;;;16.81;67.65
76260;BME280;65076;52.362;6.588;2023-08-31T22:47:11;101214.34;;;16.77;66.55
76260;BME280;65076;52.362;6.588;2023-08-31T22:54:47;101204.25;;;16.50;66.64
76260;BME280;65076;52.362;6.588;2023-08-31T23:04:48;101172.44;;;16.64;66.65
76260;BME280;65076;52.362;6.588;2023-08-31T23:12:20;101210.78;;;16.89;66.13
76260;BME280;65076;52.362;6.588;2023-08-31T23:17:19;101216.19;;;16.76;66.32
76260;BME280;65076;52.362;6.588;2023-08-31T23:19:50;101220.16;;;16.58;67.91
76260;BME280;65076;52.362;6.588;2023-08-31T23:27:26;101111.56;;;16.08;66.93
76260;BME280;65076;52.362;6.588;2023-08-31T23:34:56;101103.56;;;16.05;66.26
76260;BME280;65076;52.362;6.588;2023-08-31T23:37:29;101203.03;;;16.42;66.41
76260;BME280;65076;52.362;6.588;2023-08-31T23:45:06;101180.50;;;16.38;66.86
76260;BME280;65076;52.362;6.588;2023-08-31T23:55:08;101197.44;;;16.43;67.61
